KMOT/MOT METAR and TAF weather

Enter ICAO airport designator
Station Type Date Time Source
KMOT METAR 2021/03/08 15:54 UTC NOAA

KMOT 081554Z 21009KT 10SM OVC110 08/M04 A3008 RMK AO2 SLP202 T00781039


Station Type Date Time Source
KMOT Decoded METAR 2021/03/08 15:54 UTC NOAA

MINOT INTERNATIONAL AIRPORT , ND, United States (KMOT) 48-16N 101-17W 519M
Mar 08, 2021 - 10:54 AM EST / 2021.03.08 1554 UTC
Wind: from the SSW (210 degrees) at 10 MPH (9 KT):0
Visibility: 10 mile(s):0
Sky conditions: overcast
Temperature: 46.0 F (7.8 C)
Dew Point: 25.0 F (-3.9 C)
Relative Humidity: 43%
Pressure (altimeter): 30.08 in. Hg (1018 hPa)
ob: KMOT 081554Z 21009KT 10SM OVC110 08/M04 A3008 RMK AO2 SLP202 T00781039
cycle: 16

Station Type Date Time Source
KMOT TAF 2021/03/08 12:34 UTC NOAA

TAF KMOT 081132Z 0812/0912 22010KT P6SM FEW250
FM081900 18010KT P6SM SCT200
FM090000 10009KT P6SM BKN150

Example: see airport list